Willits, CA

5:54 PM PDT on September 17, 2014 (GMT -0700)
Mendocino College Willits | Change Station
CLOSE
Current Station
Personal Weather Station
Location: Willits, CA
Elevation: 1355 ft
Nearby Weather Stations

Elev 1355 ft 39.41 °N, 123.35 °W | Updated 3 minutes ago

Partly Cloudy
Partly Cloudy
72.8 °F
Feels Like 77 °F
N
3.0
Wind Variable Wind from WNW
Gusts 5.0 mph

Today
High -- | Low -- °F
--% Chance of Precip.
Yesterday
High -- | Low -- °F
Precip. -- in
6:56 AM 7:18 PM
Waning Crescent, 31% visible
Pressure 29.67 in
Visibility 10.0 miles
Clouds Few 8000 ft
Heat Index 77 °F
Dew Point 55 °F
Humidity 54%
Rainfall 0.00 in
Snow Depth 0 in , 3 in , 0 in
UV 2 out of 12
Pollen 6.40 out of 12
Air Quality Not available.
Flu Activity Not available.
METAR KUKI 172356Z AUTO 15009KT 10SM FEW080 27/11 A2969 RMK AO2 SLP046 T02720111 10289 20211 56021

More Conditions Fewer Conditions

Pressure 29.67 in
Visibility 10.0 miles
Clouds Few 8000 ft
Heat Index 77 °F
Dew Point 55 °F
Humidity 54%
Rainfall 0.00 in
Snow Depth 0 in , 3 in , 0 in
UV 2 out of 12
Pollen 6.40 out of 12
Air Quality Not available.
Flu Activity Not available.
METAR KUKI 172356Z AUTO 15009KT 10SM FEW080 27/11 A2969 RMK AO2 SLP046 T02720111 10289 20211 56021

More Conditions Fewer Conditions

10-Day Weather Forecast

Almanac

Astronomy

Sep. 17, 2014 Rise Set
Actual Time 6:56 AM PDT 7:18 PM PDT
Civil Twilight 6:29 AM PDT 7:45 PM PDT
Nautical Twilight 5:58 AM PDT 8:16 PM PDT
Astronomical Twilight 5:25 AM PDT 8:48 PM PDT
Moon 1:02 AM PDT (9/17) 3:31 PM PDT (9/17)
Length of Visible Light 13h 15m
Length of Day
12h 21m
Tomorrow will be 2m 33s shorter.
Waning Crescent, 31% of the Moon is Illuminated
Today
Waning Crescent
Sep 24
New
Oct 1
First Quarter
Oct 8
Full
Oct 15
Last Quarter

Today's Extremes

State Highs State Lows

Community

WunderPhotos

Upload Photos

1,754,224 photos uploaded!

Nearby

Snow Depth

Station Depth Elevation
Adin Mountain 0 in 6200 ft
CSS Lab 3 in 6900 ft
Leavitt Lake 0 in 9400 ft
Tahoe City Cross 0 in 6750 ft
Leavitt Meadows 0 in 7200 ft

Earthquake Activity

City Distance Mag. Time & Date
Cobb, California 54 miles 2.7 1:23 PM PDT
2014-09-16
Minimum magnitude displayed is 2.5.

Coastal Water Temperatures

Place Temperature
Arena Cove, CA 60.1 °F
North Spit, CA 59.0 °F
Point Reyes, CA 62.1 °F
San Francisco, CA 64.9 °F
Richmond, CA 68.0 °F

Nearby Weather Stations